sensor_id;sensor_type;location;lat;lon;timestamp;P1;durP1;ratioP1;P2;durP2;ratioP2
60722;SDS011;46574;52.818;6.516;2023-10-08T00:00:47;1.90;;;0.90;;
60722;SDS011;46574;52.818;6.516;2023-10-08T00:03:21;1.00;;;0.90;;
60722;SDS011;46574;52.818;6.516;2023-10-08T00:05:47;1.58;;;0.88;;
60722;SDS011;46574;52.818;6.516;2023-10-08T00:08:14;2.08;;;1.15;;
60722;SDS011;46574;52.818;6.516;2023-10-08T00:10:41;1.30;;;1.20;;
60722;SDS011;46574;52.818;6.516;2023-10-08T00:13:09;1.30;;;1.17;;
60722;SDS011;46574;52.818;6.516;2023-10-08T00:15:35;1.65;;;1.20;;
60722;SDS011;46574;52.818;6.516;2023-10-08T00:18:05;1.63;;;1.40;;
60722;SDS011;46574;52.818;6.516;2023-10-08T00:20:40;3.13;;;1.27;;
60722;SDS011;46574;52.818;6.516;2023-10-08T00:23:14;1.63;;;1.10;;
60722;SDS011;46574;52.818;6.516;2023-10-08T00:25:42;1.90;;;1.20;;
60722;SDS011;46574;52.818;6.516;2023-10-08T00:28:12;1.17;;;1.08;;
60722;SDS011;46574;52.818;6.516;2023-10-08T00:30:42;1.63;;;0.80;;
60722;SDS011;46574;52.818;6.516;2023-10-08T00:33:11;2.70;;;0.75;;
60722;SDS011;46574;52.818;6.516;2023-10-08T00:35:37;1.02;;;0.93;;
60722;SDS011;46574;52.818;6.516;2023-10-08T00:38:04;0.50;;;0.50;;
60722;SDS011;46574;52.818;6.516;2023-10-08T00:40:37;2.95;;;0.60;;
60722;SDS011;46574;52.818;6.516;2023-10-08T00:43:09;1.95;;;0.60;;
60722;SDS011;46574;52.818;6.516;2023-10-08T00:45:37;0.80;;;0.50;;
60722;SDS011;46574;52.818;6.516;2023-10-08T00:48:11;1.30;;;0.70;;
60722;SDS011;46574;52.818;6.516;2023-10-08T00:50:42;1.15;;;0.60;;
60722;SDS011;46574;52.818;6.516;2023-10-08T00:53:11;0.70;;;0.63;;
60722;SDS011;46574;52.818;6.516;2023-10-08T00:55:48;1.10;;;0.70;;
60722;SDS011;46574;52.818;6.516;2023-10-08T00:58:24;1.60;;;1.05;;
60722;SDS011;46574;52.818;6.516;2023-10-08T01:00:52;0.90;;;0.80;;
60722;SDS011;46574;52.818;6.516;2023-10-08T01:03:26;1.10;;;1.00;;
60722;SDS011;46574;52.818;6.516;2023-10-08T01:05:53;1.40;;;1.30;;
60722;SDS011;46574;52.818;6.516;2023-10-08T01:08:19;1.60;;;1.38;;
60722;SDS011;46574;52.818;6.516;2023-10-08T01:14:11;2.42;;;1.45;;
60722;SDS011;46574;52.818;6.516;2023-10-08T01:16:37;2.28;;;1.77;;
60722;SDS011;46574;52.818;6.516;2023-10-08T01:19:04;1.63;;;1.40;;
60722;SDS011;46574;52.818;6.516;2023-10-08T01:21:37;1.52;;;1.40;;
60722;SDS011;46574;52.818;6.516;2023-10-08T01:24:05;2.45;;;1.40;;
60722;SDS011;46574;52.818;6.516;2023-10-08T01:26:32;1.00;;;0.90;;
60722;SDS011;46574;52.818;6.516;2023-10-08T01:28:59;1.50;;;1.40;;
60722;SDS011;46574;52.818;6.516;2023-10-08T01:31:28;1.67;;;1.40;;
60722;SDS011;46574;52.818;6.516;2023-10-08T01:33:54;2.63;;;1.40;;
60722;SDS011;46574;52.818;6.516;2023-10-08T01:36:22;2.03;;;1.25;;
60722;SDS011;46574;52.818;6.516;2023-10-08T01:38:50;2.38;;;1.25;;
60722;SDS011;46574;52.818;6.516;2023-10-08T01:41:16;2.15;;;1.10;;
60722;SDS011;46574;52.818;6.516;2023-10-08T01:43:45;0.98;;;0.90;;
60722;SDS011;46574;52.818;6.516;2023-10-08T01:46:11;1.42;;;1.00;;
60722;SDS011;46574;52.818;6.516;2023-10-08T01:48:37;1.40;;;0.95;;
60722;SDS011;46574;52.818;6.516;2023-10-08T01:51:04;1.40;;;1.00;;
60722;SDS011;46574;52.818;6.516;2023-10-08T01:53:50;2.53;;;1.30;;
60722;SDS011;46574;52.818;6.516;2023-10-08T01:56:19;1.00;;;0.90;;
60722;SDS011;46574;52.818;6.516;2023-10-08T01:58:44;1.83;;;1.35;;
60722;SDS011;46574;52.818;6.516;2023-10-08T02:01:11;0.82;;;0.73;;
60722;SDS011;46574;52.818;6.516;2023-10-08T02:03:38;1.63;;;1.20;;
60722;SDS011;46574;52.818;6.516;2023-10-08T02:06:04;1.08;;;0.98;;
60722;SDS011;46574;52.818;6.516;2023-10-08T02:08:31;0.93;;;0.90;;
60722;SDS011;46574;52.818;6.516;2023-10-08T02:10:57;1.27;;;0.93;;
60722;SDS011;46574;52.818;6.516;2023-10-08T02:13:22;1.52;;;0.95;;
60722;SDS011;46574;52.818;6.516;2023-10-08T02:15:51;1.40;;;1.30;;
60722;SDS011;46574;52.818;6.516;2023-10-08T02:20:43;1.77;;;1.00;;
60722;SDS011;46574;52.818;6.516;2023-10-08T02:23:09;1.95;;;1.35;;
60722;SDS011;46574;52.818;6.516;2023-10-08T02:25:37;1.77;;;0.93;;
60722;SDS011;46574;52.818;6.516;2023-10-08T02:28:05;2.03;;;1.00;;
60722;SDS011;46574;52.818;6.516;2023-10-08T02:30:34;1.38;;;1.25;;
60722;SDS011;46574;52.818;6.516;2023-10-08T02:33:01;1.30;;;1.20;;
60722;SDS011;46574;52.818;6.516;2023-10-08T02:35:27;2.05;;;1.60;;
60722;SDS011;46574;52.818;6.516;2023-10-08T02:37:53;1.58;;;1.38;;
60722;SDS011;46574;52.818;6.516;2023-10-08T02:40:20;2.50;;;1.70;;
60722;SDS011;46574;52.818;6.516;2023-10-08T02:42:52;2.75;;;1.50;;
60722;SDS011;46574;52.818;6.516;2023-10-08T02:45:24;2.05;;;1.38;;
60722;SDS011;46574;52.818;6.516;2023-10-08T02:47:52;2.97;;;1.75;;
60722;SDS011;46574;52.818;6.516;2023-10-08T02:50:19;1.52;;;1.30;;
60722;SDS011;46574;52.818;6.516;2023-10-08T02:52:44;2.63;;;1.70;;
60722;SDS011;46574;52.818;6.516;2023-10-08T02:55:11;2.35;;;1.48;;
60722;SDS011;46574;52.818;6.516;2023-10-08T02:57:55;1.98;;;1.60;;
60722;SDS011;46574;52.818;6.516;2023-10-08T03:00:24;2.75;;;2.17;;
60722;SDS011;46574;52.818;6.516;2023-10-08T03:02:54;2.88;;;1.83;;
60722;SDS011;46574;52.818;6.516;2023-10-08T03:05:34;3.40;;;1.77;;
60722;SDS011;46574;52.818;6.516;2023-10-08T03:08:04;3.30;;;2.20;;
60722;SDS011;46574;52.818;6.516;2023-10-08T03:10:39;2.42;;;1.75;;
60722;SDS011;46574;52.818;6.516;2023-10-08T03:13:06;2.55;;;1.95;;
60722;SDS011;46574;52.818;6.516;2023-10-08T03:15:38;1.95;;;1.70;;
60722;SDS011;46574;52.818;6.516;2023-10-08T03:18:06;3.20;;;1.83;;
60722;SDS011;46574;52.818;6.516;2023-10-08T03:20:38;2.17;;;1.80;;
60722;SDS011;46574;52.818;6.516;2023-10-08T03:23:08;2.88;;;2.08;;
60722;SDS011;46574;52.818;6.516;2023-10-08T03:25:49;1.60;;;1.50;;
60722;SDS011;46574;52.818;6.516;2023-10-08T03:28:37;2.90;;;1.50;;
60722;SDS011;46574;52.818;6.516;2023-10-08T03:31:06;2.20;;;1.92;;
60722;SDS011;46574;52.818;6.516;2023-10-08T03:33:39;1.50;;;1.33;;
60722;SDS011;46574;52.818;6.516;2023-10-08T03:36:05;2.85;;;1.70;;
60722;SDS011;46574;52.818;6.516;2023-10-08T03:38:55;2.25;;;1.95;;
60722;SDS011;46574;52.818;6.516;2023-10-08T03:41:25;3.15;;;1.73;;
60722;SDS011;46574;52.818;6.516;2023-10-08T03:43:55;2.60;;;2.22;;
60722;SDS011;46574;52.818;6.516;2023-10-08T03:46:41;2.88;;;2.33;;
60722;SDS011;46574;52.818;6.516;2023-10-08T03:49:11;3.22;;;2.25;;
60722;SDS011;46574;52.818;6.516;2023-10-08T03:51:50;3.55;;;2.33;;
60722;SDS011;46574;52.818;6.516;2023-10-08T03:54:17;4.63;;;2.17;;
60722;SDS011;46574;52.818;6.516;2023-10-08T03:56:44;2.47;;;1.92;;
60722;SDS011;46574;52.818;6.516;2023-10-08T03:59:14;3.83;;;2.00;;
60722;SDS011;46574;52.818;6.516;2023-10-08T04:02:05;2.67;;;1.58;;
60722;SDS011;46574;52.818;6.516;2023-10-08T04:04:46;2.85;;;1.70;;
60722;SDS011;46574;52.818;6.516;2023-10-08T04:07:22;2.28;;;1.90;;
60722;SDS011;46574;52.818;6.516;2023-10-08T04:09:58;2.72;;;2.05;;
60722;SDS011;46574;52.818;6.516;2023-10-08T04:12:50;2.80;;;2.20;;
60722;SDS011;46574;52.818;6.516;2023-10-08T04:15:18;2.65;;;1.92;;
60722;SDS011;46574;52.818;6.516;2023-10-08T04:17:45;2.17;;;1.90;;
60722;SDS011;46574;52.818;6.516;2023-10-08T04:20:16;2.67;;;1.60;;
60722;SDS011;46574;52.818;6.516;2023-10-08T04:23:04;1.80;;;1.65;;
60722;SDS011;46574;52.818;6.516;2023-10-08T04:25:32;2.90;;;2.20;;
60722;SDS011;46574;52.818;6.516;2023-10-08T04:27:58;2.00;;;1.80;;
60722;SDS011;46574;52.818;6.516;2023-10-08T04:30:34;2.03;;;1.35;;
60722;SDS011;46574;52.818;6.516;2023-10-08T04:33:03;1.98;;;1.77;;
60722;SDS011;46574;52.818;6.516;2023-10-08T04:35:43;2.10;;;1.33;;
60722;SDS011;46574;52.818;6.516;2023-10-08T04:38:21;2.10;;;1.50;;
60722;SDS011;46574;52.818;6.516;2023-10-08T04:40:48;2.30;;;1.80;;
60722;SDS011;46574;52.818;6.516;2023-10-08T04:43:17;1.73;;;1.60;;
60722;SDS011;46574;52.818;6.516;2023-10-08T04:46:08;1.52;;;1.38;;
60722;SDS011;46574;52.818;6.516;2023-10-08T04:48:53;2.42;;;1.67;;
60722;SDS011;46574;52.818;6.516;2023-10-08T04:51:18;2.45;;;1.42;;
60722;SDS011;46574;52.818;6.516;2023-10-08T04:53:46;3.13;;;1.85;;
60722;SDS011;46574;52.818;6.516;2023-10-08T04:56:12;2.95;;;1.77;;
60722;SDS011;46574;52.818;6.516;2023-10-08T05:01:12;2.45;;;1.70;;
60722;SDS011;46574;52.818;6.516;2023-10-08T05:04:04;4.30;;;1.90;;
60722;SDS011;46574;52.818;6.516;2023-10-08T05:06:30;2.72;;;1.60;;
60722;SDS011;46574;52.818;6.516;2023-10-08T05:09:04;2.30;;;1.73;;
60722;SDS011;46574;52.818;6.516;2023-10-08T05:11:54;2.28;;;1.30;;
60722;SDS011;46574;52.818;6.516;2023-10-08T05:14:38;2.50;;;1.13;;
60722;SDS011;46574;52.818;6.516;2023-10-08T05:17:20;2.17;;;1.50;;
60722;SDS011;46574;52.818;6.516;2023-10-08T05:19:46;2.35;;;1.77;;
60722;SDS011;46574;52.818;6.516;2023-10-08T05:22:12;4.93;;;2.13;;
60722;SDS011;46574;52.818;6.516;2023-10-08T05:24:54;1.80;;;1.60;;
60722;SDS011;46574;52.818;6.516;2023-10-08T05:27:37;3.97;;;1.63;;
60722;SDS011;46574;52.818;6.516;2023-10-08T05:30:16;2.20;;;1.30;;
60722;SDS011;46574;52.818;6.516;2023-10-08T05:33:18;2.90;;;1.25;;
60722;SDS011;46574;52.818;6.516;2023-10-08T05:36:15;2.88;;;1.40;;
60722;SDS011;46574;52.818;6.516;2023-10-08T05:38:53;1.80;;;1.00;;
60722;SDS011;46574;52.818;6.516;2023-10-08T05:41:44;3.78;;;1.58;;
60722;SDS011;46574;52.818;6.516;2023-10-08T05:44:17;3.78;;;1.60;;
60722;SDS011;46574;52.818;6.516;2023-10-08T05:46:43;2.00;;;1.55;;
60722;SDS011;46574;52.818;6.516;2023-10-08T05:49:21;3.40;;;1.30;;
60722;SDS011;46574;52.818;6.516;2023-10-08T05:51:53;5.75;;;3.35;;
60722;SDS011;46574;52.818;6.516;2023-10-08T05:54:22;2.63;;;1.30;;
60722;SDS011;46574;52.818;6.516;2023-10-08T05:56:55;2.63;;;1.30;;
60722;SDS011;46574;52.818;6.516;2023-10-08T06:02:37;4.03;;;1.52;;
60722;SDS011;46574;52.818;6.516;2023-10-08T06:05:11;3.78;;;1.42;;
60722;SDS011;46574;52.818;6.516;2023-10-08T06:07:38;2.15;;;1.27;;
60722;SDS011;46574;52.818;6.516;2023-10-08T06:10:32;1.92;;;1.10;;
60722;SDS011;46574;52.818;6.516;2023-10-08T06:13:02;2.50;;;1.40;;
60722;SDS011;46574;52.818;6.516;2023-10-08T06:15:48;3.05;;;1.60;;
60722;SDS011;46574;52.818;6.516;2023-10-08T06:18:22;4.72;;;1.98;;
60722;SDS011;46574;52.818;6.516;2023-10-08T06:20:52;2.67;;;1.40;;
60722;SDS011;46574;52.818;6.516;2023-10-08T06:23:23;2.30;;;1.25;;
60722;SDS011;46574;52.818;6.516;2023-10-08T06:25:50;2.60;;;1.60;;
60722;SDS011;46574;52.818;6.516;2023-10-08T06:28:32;2.75;;;1.50;;
60722;SDS011;46574;52.818;6.516;2023-10-08T06:31:02;2.03;;;1.17;;
60722;SDS011;46574;52.818;6.516;2023-10-08T06:33:32;2.55;;;1.20;;
60722;SDS011;46574;52.818;6.516;2023-10-08T06:36:01;1.77;;;1.10;;
60722;SDS011;46574;52.818;6.516;2023-10-08T06:38:34;2.13;;;1.33;;
60722;SDS011;46574;52.818;6.516;2023-10-08T06:41:00;4.72;;;2.10;;
60722;SDS011;46574;52.818;6.516;2023-10-08T06:43:43;3.75;;;2.17;;
60722;SDS011;46574;52.818;6.516;2023-10-08T06:46:15;3.67;;;1.70;;
60722;SDS011;46574;52.818;6.516;2023-10-08T06:48:47;3.83;;;1.63;;
60722;SDS011;46574;52.818;6.516;2023-10-08T06:51:14;3.60;;;2.05;;
60722;SDS011;46574;52.818;6.516;2023-10-08T06:53:46;4.45;;;2.00;;
60722;SDS011;46574;52.818;6.516;2023-10-08T06:56:13;3.20;;;1.92;;
60722;SDS011;46574;52.818;6.516;2023-10-08T06:58:40;2.10;;;1.60;;
60722;SDS011;46574;52.818;6.516;2023-10-08T07:01:18;3.33;;;1.60;;
60722;SDS011;46574;52.818;6.516;2023-10-08T07:03:50;2.80;;;1.60;;
60722;SDS011;46574;52.818;6.516;2023-10-08T07:06:28;3.33;;;1.70;;
60722;SDS011;46574;52.818;6.516;2023-10-08T07:08:59;2.70;;;1.98;;
60722;SDS011;46574;52.818;6.516;2023-10-08T07:11:29;2.58;;;1.58;;
60722;SDS011;46574;52.818;6.516;2023-10-08T07:13:59;4.40;;;1.98;;
60722;SDS011;46574;52.818;6.516;2023-10-08T07:16:29;3.50;;;2.10;;
60722;SDS011;46574;52.818;6.516;2023-10-08T07:18:55;3.03;;;1.60;;
60722;SDS011;46574;52.818;6.516;2023-10-08T07:21:28;3.17;;;1.60;;
60722;SDS011;46574;52.818;6.516;2023-10-08T07:24:03;3.20;;;1.60;;
60722;SDS011;46574;52.818;6.516;2023-10-08T07:26:34;3.58;;;1.95;;
60722;SDS011;46574;52.818;6.516;2023-10-08T07:29:02;2.58;;;1.40;;
60722;SDS011;46574;52.818;6.516;2023-10-08T07:31:37;1.90;;;1.10;;
60722;SDS011;46574;52.818;6.516;2023-10-08T07:34:13;3.13;;;1.42;;
60722;SDS011;46574;52.818;6.516;2023-10-08T07:36:49;2.25;;;1.50;;
60722;SDS011;46574;52.818;6.516;2023-10-08T07:39:16;3.17;;;1.45;;
60722;SDS011;46574;52.818;6.516;2023-10-08T07:41:55;5.72;;;1.88;;
60722;SDS011;46574;52.818;6.516;2023-10-08T07:44:21;2.65;;;1.88;;
60722;SDS011;46574;52.818;6.516;2023-10-08T07:46:51;4.78;;;1.77;;
60722;SDS011;46574;52.818;6.516;2023-10-08T07:49:21;6.50;;;2.03;;
60722;SDS011;46574;52.818;6.516;2023-10-08T07:51:56;3.20;;;1.40;;
60722;SDS011;46574;52.818;6.516;2023-10-08T07:54:24;4.88;;;1.70;;
60722;SDS011;46574;52.818;6.516;2023-10-08T07:56:53;4.55;;;1.70;;
60722;SDS011;46574;52.818;6.516;2023-10-08T07:59:34;4.97;;;1.88;;
60722;SDS011;46574;52.818;6.516;2023-10-08T08:02:06;4.60;;;1.73;;
60722;SDS011;46574;52.818;6.516;2023-10-08T08:04:39;3.55;;;1.60;;
60722;SDS011;46574;52.818;6.516;2023-10-08T08:07:08;4.07;;;1.20;;
60722;SDS011;46574;52.818;6.516;2023-10-08T08:09:41;3.03;;;1.30;;
60722;SDS011;46574;52.818;6.516;2023-10-08T08:12:15;3.40;;;1.23;;
60722;SDS011;46574;52.818;6.516;2023-10-08T08:14:46;4.65;;;1.50;;
60722;SDS011;46574;52.818;6.516;2023-10-08T08:17:13;2.53;;;1.23;;
60722;SDS011;46574;52.818;6.516;2023-10-08T08:19:43;5.00;;;1.40;;
60722;SDS011;46574;52.818;6.516;2023-10-08T08:22:10;4.35;;;1.30;;
60722;SDS011;46574;52.818;6.516;2023-10-08T08:24:40;2.72;;;1.15;;
60722;SDS011;46574;52.818;6.516;2023-10-08T08:27:10;2.78;;;1.20;;
60722;SDS011;46574;52.818;6.516;2023-10-08T08:32:20;3.38;;;0.98;;
60722;SDS011;46574;52.818;6.516;2023-10-08T08:37:18;3.40;;;1.00;;
60722;SDS011;46574;52.818;6.516;2023-10-08T08:39:47;3.15;;;1.20;;
60722;SDS011;46574;52.818;6.516;2023-10-08T08:42:13;4.07;;;1.40;;
60722;SDS011;46574;52.818;6.516;2023-10-08T08:44:43;7.50;;;1.40;;
60722;SDS011;46574;52.818;6.516;2023-10-08T08:47:13;5.40;;;1.30;;
60722;SDS011;46574;52.818;6.516;2023-10-08T08:49:45;2.85;;;0.98;;
60722;SDS011;46574;52.818;6.516;2023-10-08T08:52:13;6.05;;;1.20;;
60722;SDS011;46574;52.818;6.516;2023-10-08T08:54:39;3.42;;;1.10;;
60722;SDS011;46574;52.818;6.516;2023-10-08T08:57:07;5.25;;;1.00;;
60722;SDS011;46574;52.818;6.516;2023-10-08T08:59:40;3.63;;;1.35;;
60722;SDS011;46574;52.818;6.516;2023-10-08T09:02:13;2.70;;;0.98;;
60722;SDS011;46574;52.818;6.516;2023-10-08T09:04:40;3.30;;;1.27;;
60722;SDS011;46574;52.818;6.516;2023-10-08T09:07:06;4.10;;;1.33;;
60722;SDS011;46574;52.818;6.516;2023-10-08T09:09:33;6.13;;;1.40;;
60722;SDS011;46574;52.818;6.516;2023-10-08T09:12:00;4.15;;;1.02;;
60722;SDS011;46574;52.818;6.516;2023-10-08T09:16:57;3.88;;;1.38;;
60722;SDS011;46574;52.818;6.516;2023-10-08T09:19:24;4.13;;;1.00;;
60722;SDS011;46574;52.818;6.516;2023-10-08T09:22:07;6.95;;;1.20;;
60722;SDS011;46574;52.818;6.516;2023-10-08T09:24:36;3.50;;;0.90;;
60722;SDS011;46574;52.818;6.516;2023-10-08T09:27:06;3.08;;;1.35;;
60722;SDS011;46574;52.818;6.516;2023-10-08T09:29:36;4.18;;;1.30;;
60722;SDS011;46574;52.818;6.516;2023-10-08T09:32:05;5.07;;;1.05;;
60722;SDS011;46574;52.818;6.516;2023-10-08T09:34:33;4.68;;;1.63;;
60722;SDS011;46574;52.818;6.516;2023-10-08T09:36:59;4.88;;;1.58;;
60722;SDS011;46574;52.818;6.516;2023-10-08T09:39:26;3.58;;;1.48;;
60722;SDS011;46574;52.818;6.516;2023-10-08T09:41:54;2.78;;;0.85;;
60722;SDS011;46574;52.818;6.516;2023-10-08T09:44:21;3.20;;;1.10;;
60722;SDS011;46574;52.818;6.516;2023-10-08T09:46:52;4.43;;;1.38;;
60722;SDS011;46574;52.818;6.516;2023-10-08T09:49:36;3.95;;;1.52;;
60722;SDS011;46574;52.818;6.516;2023-10-08T09:52:23;3.08;;;1.00;;
60722;SDS011;46574;52.818;6.516;2023-10-08T09:54:58;4.35;;;1.05;;
60722;SDS011;46574;52.818;6.516;2023-10-08T09:57:28;3.03;;;0.80;;
60722;SDS011;46574;52.818;6.516;2023-10-08T09:59:54;6.18;;;1.10;;
60722;SDS011;46574;52.818;6.516;2023-10-08T10:02:22;2.25;;;0.93;;
60722;SDS011;46574;52.818;6.516;2023-10-08T10:04:56;3.33;;;1.20;;
60722;SDS011;46574;52.818;6.516;2023-10-08T10:07:22;3.90;;;1.05;;
60722;SDS011;46574;52.818;6.516;2023-10-08T10:09:50;4.40;;;1.53;;
60722;SDS011;46574;52.818;6.516;2023-10-08T10:12:26;4.07;;;1.57;;
60722;SDS011;46574;52.818;6.516;2023-10-08T10:14:52;5.35;;;1.10;;
60722;SDS011;46574;52.818;6.516;2023-10-08T10:17:26;4.53;;;1.20;;
60722;SDS011;46574;52.818;6.516;2023-10-08T10:19:56;3.43;;;1.10;;
60722;SDS011;46574;52.818;6.516;2023-10-08T10:22:28;4.97;;;1.27;;
60722;SDS011;46574;52.818;6.516;2023-10-08T10:24:58;4.47;;;1.80;;
60722;SDS011;46574;52.818;6.516;2023-10-08T10:27:29;5.22;;;1.15;;
60722;SDS011;46574;52.818;6.516;2023-10-08T10:30:04;5.28;;;1.33;;
60722;SDS011;46574;52.818;6.516;2023-10-08T10:32:34;6.13;;;1.20;;
60722;SDS011;46574;52.818;6.516;2023-10-08T10:35:01;4.22;;;1.42;;
60722;SDS011;46574;52.818;6.516;2023-10-08T10:37:29;5.40;;;1.30;;
60722;SDS011;46574;52.818;6.516;2023-10-08T10:40:06;5.15;;;1.15;;
60722;SDS011;46574;52.818;6.516;2023-10-08T10:42:36;5.15;;;1.10;;
60722;SDS011;46574;52.818;6.516;2023-10-08T10:45:12;5.50;;;1.25;;
60722;SDS011;46574;52.818;6.516;2023-10-08T10:47:59;5.22;;;1.15;;
60722;SDS011;46574;52.818;6.516;2023-10-08T10:50:39;6.35;;;1.67;;
60722;SDS011;46574;52.818;6.516;2023-10-08T10:53:14;3.88;;;1.33;;
60722;SDS011;46574;52.818;6.516;2023-10-08T10:55:44;4.20;;;1.30;;
60722;SDS011;46574;52.818;6.516;2023-10-08T10:58:24;6.35;;;1.40;;
60722;SDS011;46574;52.818;6.516;2023-10-08T11:00:51;3.58;;;1.20;;
60722;SDS011;46574;52.818;6.516;2023-10-08T11:03:24;4.22;;;1.35;;
60722;SDS011;46574;52.818;6.516;2023-10-08T11:05:54;4.40;;;1.58;;
60722;SDS011;46574;52.818;6.516;2023-10-08T11:08:40;4.13;;;1.00;;
60722;SDS011;46574;52.818;6.516;2023-10-08T11:11:11;5.20;;;1.20;;
60722;SDS011;46574;52.818;6.516;2023-10-08T11:13:37;5.13;;;1.10;;
60722;SDS011;46574;52.818;6.516;2023-10-08T11:16:04;6.40;;;1.38;;
60722;SDS011;46574;52.818;6.516;2023-10-08T11:18:32;3.83;;;1.10;;
60722;SDS011;46574;52.818;6.516;2023-10-08T11:21:07;3.42;;;1.20;;
60722;SDS011;46574;52.818;6.516;2023-10-08T11:23:44;5.85;;;1.20;;
60722;SDS011;46574;52.818;6.516;2023-10-08T11:26:37;3.28;;;1.10;;
60722;SDS011;46574;52.818;6.516;2023-10-08T11:29:19;3.85;;;1.10;;
60722;SDS011;46574;52.818;6.516;2023-10-08T11:31:51;2.75;;;1.20;;
60722;SDS011;46574;52.818;6.516;2023-10-08T11:34:18;4.53;;;1.42;;
60722;SDS011;46574;52.818;6.516;2023-10-08T11:36:52;4.63;;;1.20;;
60722;SDS011;46574;52.818;6.516;2023-10-08T11:39:18;2.80;;;1.35;;
60722;SDS011;46574;52.818;6.516;2023-10-08T11:41:57;5.20;;;1.30;;
60722;SDS011;46574;52.818;6.516;2023-10-08T11:44:28;3.55;;;1.45;;
60722;SDS011;46574;52.818;6.516;2023-10-08T11:46:55;3.70;;;1.02;;
60722;SDS011;46574;52.818;6.516;2023-10-08T11:49:29;5.05;;;1.00;;
60722;SDS011;46574;52.818;6.516;2023-10-08T11:52:01;4.95;;;1.05;;
60722;SDS011;46574;52.818;6.516;2023-10-08T11:54:27;6.13;;;1.50;;
60722;SDS011;46574;52.818;6.516;2023-10-08T11:56:53;3.35;;;1.10;;
60722;SDS011;46574;52.818;6.516;2023-10-08T11:59:20;6.13;;;1.45;;
60722;SDS011;46574;52.818;6.516;2023-10-08T12:01:45;4.07;;;1.40;;
60722;SDS011;46574;52.818;6.516;2023-10-08T12:04:11;2.85;;;0.90;;
60722;SDS011;46574;52.818;6.516;2023-10-08T12:06:41;4.15;;;1.48;;
60722;SDS011;46574;52.818;6.516;2023-10-08T12:09:12;4.55;;;1.17;;
60722;SDS011;46574;52.818;6.516;2023-10-08T12:11:39;4.40;;;1.42;;
60722;SDS011;46574;52.818;6.516;2023-10-08T12:14:05;4.40;;;1.08;;
60722;SDS011;46574;52.818;6.516;2023-10-08T12:16:31;3.83;;;1.30;;
60722;SDS011;46574;52.818;6.516;2023-10-08T12:19:00;3.20;;;1.25;;
60722;SDS011;46574;52.818;6.516;2023-10-08T12:21:27;3.40;;;1.00;;
60722;SDS011;46574;52.818;6.516;2023-10-08T12:24:00;4.03;;;1.02;;
60722;SDS011;46574;52.818;6.516;2023-10-08T12:26:30;2.90;;;0.93;;
60722;SDS011;46574;52.818;6.516;2023-10-08T12:28:56;5.35;;;1.40;;
60722;SDS011;46574;52.818;6.516;2023-10-08T12:31:22;4.95;;;1.38;;
60722;SDS011;46574;52.818;6.516;2023-10-08T12:33:52;4.90;;;1.25;;
60722;SDS011;46574;52.818;6.516;2023-10-08T12:36:28;3.22;;;1.30;;
60722;SDS011;46574;52.818;6.516;2023-10-08T12:38:58;5.07;;;1.40;;
60722;SDS011;46574;52.818;6.516;2023-10-08T12:41:24;4.63;;;1.30;;
60722;SDS011;46574;52.818;6.516;2023-10-08T12:43:53;4.93;;;1.40;;
60722;SDS011;46574;52.818;6.516;2023-10-08T12:46:19;3.53;;;1.30;;
60722;SDS011;46574;52.818;6.516;2023-10-08T12:48:49;5.32;;;1.25;;
60722;SDS011;46574;52.818;6.516;2023-10-08T12:51:23;5.63;;;1.30;;
60722;SDS011;46574;52.818;6.516;2023-10-08T12:53:50;3.88;;;1.10;;
60722;SDS011;46574;52.818;6.516;2023-10-08T12:56:36;5.50;;;1.33;;
60722;SDS011;46574;52.818;6.516;2023-10-08T12:59:13;3.50;;;1.00;;
60722;SDS011;46574;52.818;6.516;2023-10-08T13:01:45;4.85;;;1.35;;
60722;SDS011;46574;52.818;6.516;2023-10-08T13:04:16;5.30;;;1.70;;
60722;SDS011;46574;52.818;6.516;2023-10-08T13:06:51;3.22;;;1.10;;
60722;SDS011;46574;52.818;6.516;2023-10-08T13:09:22;2.95;;;1.00;;
60722;SDS011;46574;52.818;6.516;2023-10-08T13:11:48;3.42;;;1.05;;
60722;SDS011;46574;52.818;6.516;2023-10-08T13:14:15;4.00;;;1.20;;
60722;SDS011;46574;52.818;6.516;2023-10-08T13:16:40;7.45;;;1.42;;
60722;SDS011;46574;52.818;6.516;2023-10-08T13:19:06;4.82;;;1.45;;
60722;SDS011;46574;52.818;6.516;2023-10-08T13:21:34;4.05;;;1.50;;
60722;SDS011;46574;52.818;6.516;2023-10-08T13:24:02;4.55;;;1.30;;
60722;SDS011;46574;52.818;6.516;2023-10-08T13:26:30;4.03;;;1.20;;
60722;SDS011;46574;52.818;6.516;2023-10-08T13:28:58;4.47;;;1.15;;
60722;SDS011;46574;52.818;6.516;2023-10-08T13:31:24;3.83;;;1.63;;
60722;SDS011;46574;52.818;6.516;2023-10-08T13:33:50;3.60;;;0.90;;
60722;SDS011;46574;52.818;6.516;2023-10-08T13:36:17;2.92;;;1.15;;
60722;SDS011;46574;52.818;6.516;2023-10-08T13:38:43;4.60;;;1.40;;
60722;SDS011;46574;52.818;6.516;2023-10-08T13:41:11;5.57;;;1.45;;
60722;SDS011;46574;52.818;6.516;2023-10-08T13:43:41;4.85;;;1.15;;
60722;SDS011;46574;52.818;6.516;2023-10-08T13:46:10;5.43;;;1.27;;
60722;SDS011;46574;52.818;6.516;2023-10-08T13:48:40;4.13;;;1.58;;
60722;SDS011;46574;52.818;6.516;2023-10-08T13:51:07;3.28;;;1.10;;
60722;SDS011;46574;52.818;6.516;2023-10-08T13:53:39;3.50;;;1.35;;
60722;SDS011;46574;52.818;6.516;2023-10-08T13:56:20;4.80;;;1.17;;
60722;SDS011;46574;52.818;6.516;2023-10-08T13:58:50;2.70;;;1.05;;
60722;SDS011;46574;52.818;6.516;2023-10-08T14:01:17;3.10;;;0.95;;
60722;SDS011;46574;52.818;6.516;2023-10-08T14:03:49;5.18;;;1.10;;
60722;SDS011;46574;52.818;6.516;2023-10-08T14:06:21;2.15;;;1.20;;
60722;SDS011;46574;52.818;6.516;2023-10-08T14:08:47;4.03;;;1.13;;
60722;SDS011;46574;52.818;6.516;2023-10-08T14:11:20;6.22;;;1.40;;
60722;SDS011;46574;52.818;6.516;2023-10-08T14:13:51;2.92;;;0.85;;
60722;SDS011;46574;52.818;6.516;2023-10-08T14:16:18;1.30;;;0.80;;
60722;SDS011;46574;52.818;6.516;2023-10-08T14:18:49;2.72;;;1.02;;
60722;SDS011;46574;52.818;6.516;2023-10-08T14:21:19;5.05;;;1.20;;
60722;SDS011;46574;52.818;6.516;2023-10-08T14:23:49;3.97;;;1.20;;
60722;SDS011;46574;52.818;6.516;2023-10-08T14:26:17;3.97;;;1.05;;
60722;SDS011;46574;52.818;6.516;2023-10-08T14:28:46;3.03;;;1.00;;
60722;SDS011;46574;52.818;6.516;2023-10-08T14:31:18;2.55;;;1.10;;
60722;SDS011;46574;52.818;6.516;2023-10-08T14:33:47;3.03;;;1.08;;
60722;SDS011;46574;52.818;6.516;2023-10-08T14:36:32;8.00;;;1.38;;
60722;SDS011;46574;52.818;6.516;2023-10-08T14:39:17;2.90;;;0.80;;
60722;SDS011;46574;52.818;6.516;2023-10-08T14:42:02;4.75;;;1.20;;
60722;SDS011;46574;52.818;6.516;2023-10-08T14:44:46;3.10;;;1.15;;
60722;SDS011;46574;52.818;6.516;2023-10-08T14:47:14;2.60;;;1.05;;
60722;SDS011;46574;52.818;6.516;2023-10-08T14:49:40;4.07;;;1.00;;
60722;SDS011;46574;52.818;6.516;2023-10-08T14:52:07;2.85;;;1.20;;
60722;SDS011;46574;52.818;6.516;2023-10-08T14:54:33;5.32;;;1.30;;
60722;SDS011;46574;52.818;6.516;2023-10-08T14:56:59;3.58;;;0.90;;
60722;SDS011;46574;52.818;6.516;2023-10-08T14:59:27;4.15;;;1.00;;
60722;SDS011;46574;52.818;6.516;2023-10-08T15:01:54;2.22;;;1.10;;
60722;SDS011;46574;52.818;6.516;2023-10-08T15:04:20;5.47;;;1.63;;
60722;SDS011;46574;52.818;6.516;2023-10-08T15:06:46;4.32;;;1.30;;
60722;SDS011;46574;52.818;6.516;2023-10-08T15:09:15;2.38;;;1.20;;
60722;SDS011;46574;52.818;6.516;2023-10-08T15:11:48;2.97;;;1.40;;
60722;SDS011;46574;52.818;6.516;2023-10-08T15:14:20;2.97;;;1.55;;
60722;SDS011;46574;52.818;6.516;2023-10-08T15:16:48;4.75;;;1.55;;
60722;SDS011;46574;52.818;6.516;2023-10-08T15:19:23;3.78;;;1.52;;
60722;SDS011;46574;52.818;6.516;2023-10-08T15:21:49;4.43;;;1.55;;
60722;SDS011;46574;52.818;6.516;2023-10-08T15:24:20;4.93;;;1.63;;
60722;SDS011;46574;52.818;6.516;2023-10-08T15:26:47;2.50;;;1.35;;
60722;SDS011;46574;52.818;6.516;2023-10-08T15:29:14;4.20;;;1.60;;
60722;SDS011;46574;52.818;6.516;2023-10-08T15:31:40;4.05;;;1.30;;